Time;durP1;ratioP1;P1;durP2;ratioP2;P2;SDS_P1;SDS_P2;PMS_P1;PMS_P2;Temp;Humidity;BMP_temperature;BMP_pressure;BME280_temperature;BME280_humidity;BME280_pressure;Samples;Min_cycle;Max_cycle;Signal;HPM_P1;HPM_P2
2023/07/20 00:00:35;;;;;;;;;13.00;10.00;;;;;21.32;90.52;98931.09;6310945;20;3511775;-50
2023/07/20 00:03:18;;;;;;;;;7.00;7.00;;;;;21.41;90.32;98932.78;6316611;20;2740963;-55
2023/07/20 00:05:47;;;;;;;;;12.00;10.67;;;;;21.47;90.19;98918.38;6310996;20;3513869;-49
2023/07/20 00:08:17;;;;;;;;;11.33;8.67;;;;;21.60;89.29;98923.22;6273687;20;3488837;-49
2023/07/20 00:10:45;;;;;;;;;14.67;11.33;;;;;21.54;88.56;98913.88;6314595;20;2794003;-48
2023/07/20 00:13:15;;;;;;;;;10.67;9.67;;;;;21.45;89.67;98917.69;6311183;20;2779452;-52
2023/07/20 00:15:43;;;;;;;;;12.00;10.00;;;;;21.48;90.42;98922.78;6311346;20;3517928;-54
2023/07/20 00:18:12;;;;;;;;;11.33;9.67;;;;;21.80;88.41;98926.28;6312374;20;2786755;-51
2023/07/20 00:20:40;;;;;;;;;10.00;8.00;;;;;21.85;88.61;98932.91;6308646;20;2750262;-53
2023/07/20 00:23:09;;;;;;;;;6.80;6.40;;;;;21.68;88.45;98929.47;6337226;20;2737862;-50
2023/07/20 00:25:37;;;;;;;;;12.00;10.33;;;;;21.49;89.60;98905.38;6276683;20;3512791;-53
2023/07/20 00:28:05;;;;;;;;;9.67;9.67;;;;;21.30;90.74;98903.09;6307868;20;3499341;-51
2023/07/20 00:30:33;;;;;;;;;8.67;8.00;;;;;21.60;89.97;98915.03;6318513;20;2741946;-53
2023/07/20 00:33:02;;;;;;;;;9.67;9.00;;;;;21.69;88.61;98914.75;6306192;20;3490965;-51
2023/07/20 00:35:30;;;;;;;;;15.67;12.00;;;;;21.27;90.28;98916.13;6313324;20;3519106;-51
2023/07/20 00:37:58;;;;;;;;;13.00;9.33;;;;;21.30;90.03;98909.44;6312141;20;2778472;-52
2023/07/20 00:40:26;;;;;;;;;13.67;11.67;;;;;21.01;90.11;98915.59;6314432;20;2780568;-53
2023/07/20 00:42:54;;;;;;;;;12.00;12.00;;;;;20.92;90.70;98900.31;6312793;20;2782585;-48
2023/07/20 00:45:22;;;;;;;;;11.67;10.67;;;;;20.92;90.79;98908.50;6312901;20;2788856;-54
2023/07/20 00:47:50;;;;;;;;;12.33;11.00;;;;;20.87;91.45;98889.94;6305766;20;3510809;-54
2023/07/20 00:50:19;;;;;;;;;11.00;11.00;;;;;20.58;93.11;98890.59;6313243;20;2790340;-51
2023/07/20 00:52:47;;;;;;;;;11.67;11.67;;;;;20.80;92.35;98903.47;6306766;20;3511753;-50
2023/07/20 00:55:16;;;;;;;;;12.00;11.33;;;;;20.75;92.08;98894.97;6310392;20;2797220;-51
2023/07/20 00:57:44;;;;;;;;;12.33;12.33;;;;;20.79;92.66;98888.09;6307088;20;3517039;-54
2023/07/20 01:00:13;;;;;;;;;13.00;12.00;;;;;20.47;93.19;98889.09;6276329;20;3513831;-54
2023/07/20 01:02:41;;;;;;;;;16.67;12.00;;;;;20.42;94.50;98883.31;6281684;20;2802367;-49
2023/07/20 01:05:09;;;;;;;;;12.33;10.67;;;;;20.51;93.83;98887.72;6314431;20;2792047;-50
2023/07/20 01:08:04;;;;;;;;;16.33;12.33;;;;;20.39;94.28;98887.25;6305685;20;3514983;-54
2023/07/20 01:10:55;;;;;;;;;15.00;13.00;;;;;20.53;93.44;98898.44;6319456;20;2666971;-55
2023/07/20 01:13:24;;;;;;;;;18.67;15.00;;;;;20.28;95.41;98898.56;6313584;20;3556553;-53
2023/07/20 01:16:02;;;;;;;;;14.33;13.00;;;;;20.44;94.97;98892.19;6305923;20;2491946;-53
2023/07/20 01:18:30;;;;;;;;;17.00;10.50;;;;;20.44;95.09;98885.88;6308112;20;2805624;-52
2023/07/20 01:21:08;;;;;;;;;13.67;13.00;;;;;20.27;95.58;98875.03;6275723;20;3535874;-52
2023/07/20 01:23:45;;;;;;;;;14.00;14.00;;;;;20.12;96.43;98883.09;6280403;20;2810778;-48
2023/07/20 01:26:34;;;;;;;;;13.67;13.00;;;;;20.04;96.29;98874.97;6309420;20;3528579;-53
2023/07/20 01:29:18;;;;;;;;;15.67;12.00;;;;;20.07;96.33;98874.59;6275685;20;2483697;-55
2023/07/20 01:31:52;;;;;;;;;13.50;13.50;;;;;20.10;96.69;98879.69;6304048;20;2804714;-48
2023/07/20 01:34:23;;;;;;;;;14.00;14.00;;;;;20.02;97.83;98878.88;6280792;20;2802469;-51
2023/07/20 01:36:53;;;;;;;;;15.67;14.33;;;;;20.24;96.95;98882.72;6306504;20;3541925;-51
2023/07/20 01:39:22;;;;;;;;;18.33;14.33;;;;;20.55;95.02;98880.06;6279562;20;3554588;-54
2023/07/20 01:41:51;;;;;;;;;12.67;11.67;;;;;20.50;95.39;98879.72;6283311;20;3540085;-52
2023/07/20 01:44:19;;;;;;;;;17.33;13.33;;;;;20.43;96.37;98884.16;6279856;20;2483683;-51
2023/07/20 01:46:47;;;;;;;;;14.33;13.67;;;;;20.45;96.09;98888.41;6314444;20;2487929;-55
2023/07/20 01:49:15;;;;;;;;;14.67;13.67;;;;;20.41;96.68;98889.81;6316030;20;2489913;-51
2023/07/20 01:51:43;;;;;;;;;13.00;11.00;;;;;20.33;96.74;98874.34;6313491;20;3501768;-53
2023/07/20 01:54:11;;;;;;;;;13.00;12.67;;;;;20.19;98.35;98883.25;6314005;20;3507570;-53
2023/07/20 01:56:39;;;;;;;;;19.00;15.00;;;;;20.28;97.38;98889.53;6281306;20;2820179;-54
2023/07/20 01:59:08;;;;;;;;;9.33;8.67;;;;;20.31;98.10;98891.91;6282970;20;3469067;-53
2023/07/20 02:01:36;;;;;;;;;13.33;11.67;;;;;20.24;96.71;98899.91;6314952;20;3531552;-55
2023/07/20 02:04:04;;;;;;;;;15.00;12.00;;;;;20.09;96.62;98898.94;6281671;20;3517121;-54
2023/07/20 02:06:32;;;;;;;;;16.67;13.00;;;;;19.73;98.91;98889.31;6281175;20;2489876;-52
2023/07/20 02:09:00;;;;;;;;;3.00;3.00;;;;;19.78;99.04;98885.25;6315794;20;2739860;-54
2023/07/20 02:11:28;;;;;;;;;12.00;12.00;;;;;19.63;99.37;98895.94;6313354;20;3520068;-52
2023/07/20 02:13:56;;;;;;;;;15.00;14.00;;;;;19.77;99.42;98889.81;6313103;20;3532596;-53
2023/07/20 02:16:24;;;;;;;;;14.33;13.00;;;;;20.07;98.56;98893.69;6278666;20;3510673;-54
2023/07/20 02:18:53;;;;;;;;;20.33;12.67;;;;;20.01;99.13;98896.25;6312890;20;3565872;-52
2023/07/20 02:21:21;;;;;;;;;11.67;11.67;;;;;19.98;98.22;98894.72;6282156;20;2491963;-52
2023/07/20 02:23:49;;;;;;;;;14.00;12.00;;;;;20.13;98.06;98894.84;6315701;20;2782709;-54
2023/07/20 02:26:17;;;;;;;;;13.00;13.00;;;;;20.40;97.58;98896.28;6312687;20;2786881;-49
2023/07/20 02:28:45;;;;;;;;;15.00;13.00;;;;;20.41;96.76;98902.59;6312657;20;3527525;-55
2023/07/20 02:31:13;;;;;;;;;8.67;7.67;;;;;20.24;97.46;98905.38;6284428;20;2737765;-55
2023/07/20 02:33:42;;;;;;;;;13.67;11.67;;;;;20.32;97.15;98909.94;6313267;20;3514854;-55
2023/07/20 02:36:10;;;;;;;;;15.33;14.33;;;;;20.14;97.41;98905.59;6279117;20;3536865;-51
2023/07/20 02:38:38;;;;;;;;;18.00;15.00;;;;;20.11;98.26;98899.63;6280840;20;3544040;-51
2023/07/20 02:41:06;;;;;;;;;12.67;11.67;;;;;19.88;99.57;98902.22;6276501;20;3516979;-51
2023/07/20 02:43:34;;;;;;;;;13.33;13.33;;;;;20.11;99.25;98910.53;6311199;20;3529454;-52
2023/07/20 02:46:02;;;;;;;;;17.50;15.00;;;;;19.69;100.00;98900.72;6281875;20;2813821;-53
2023/07/20 02:48:30;;;;;;;;;13.33;13.33;;;;;19.97;100.00;98905.81;6280436;20;2492075;-49
2023/07/20 02:50:58;;;;;;;;;14.33;14.33;;;;;19.50;100.00;98899.19;6313163;20;2483591;-52
2023/07/20 02:53:26;;;;;;;;;15.33;13.67;;;;;19.18;100.00;98891.88;6317018;20;3539873;-51
2023/07/20 02:55:54;;;;;;;;;14.33;14.00;;;;;19.65;100.00;98899.34;6313804;20;2491904;-54
2023/07/20 02:58:22;;;;;;;;;14.00;13.67;;;;;19.24;100.00;98893.91;6311944;20;2492000;-55
2023/07/20 03:00:50;;;;;;;;;14.50;14.00;;;;;19.33;100.00;98887.47;6310802;20;2483626;-51
2023/07/20 03:03:18;;;;;;;;;13.67;13.67;;;;;19.20;100.00;98893.41;6281644;20;3525409;-50
2023/07/20 03:05:46;;;;;;;;;18.33;15.67;;;;;19.30;100.00;98890.53;6281178;20;3563806;-55
2023/07/20 03:08:13;;;;;;;;;15.00;14.00;;;;;19.29;100.00;98891.53;6309394;20;2491931;-51
2023/07/20 03:10:42;;;;;;;;;18.50;14.50;;;;;19.12;100.00;98889.84;6279559;20;2815900;-55
2023/07/20 03:13:10;;;;;;;;;18.67;14.00;;;;;18.94;100.00;98888.09;6277640;20;2496126;-55
2023/07/20 03:15:38;;;;;;;;;14.00;14.00;;;;;18.87;100.00;98897.94;6312996;20;3536779;-52
2023/07/20 03:18:06;;;;;;;;;14.67;13.00;;;;;18.92;100.00;98895.56;6278737;20;3513936;-50
2023/07/20 03:20:36;;;;;;;;;14.67;12.33;;;;;18.79;100.00;98898.78;6278266;20;3499315;-53
2023/07/20 03:23:03;;;;;;;;;14.00;14.00;;;;;18.89;100.00;98900.50;6310829;20;2491914;-54
2023/07/20 03:25:30;;;;;;;;;16.00;16.00;;;;;19.01;100.00;98905.47;6279649;20;2483640;-53
2023/07/20 03:27:58;;;;;;;;;15.00;13.00;;;;;18.90;100.00;98919.38;6278590;20;2494105;-53
2023/07/20 03:30:26;;;;;;;;;13.33;11.67;;;;;19.18;100.00;98932.69;6280883;20;3517982;-53
2023/07/20 03:32:53;;;;;;;;;12.00;12.00;;;;;19.34;100.00;98927.25;6313098;20;2491935;-53
2023/07/20 03:35:21;;;;;;;;;12.50;11.50;;;;;19.39;100.00;98940.38;6283737;20;2617072;-55
2023/07/20 03:37:49;;;;;;;;;11.67;11.67;;;;;19.19;100.00;98948.00;6276814;20;3513820;-51
2023/07/20 03:40:17;;;;;;;;;13.00;12.00;;;;;19.06;100.00;98952.06;6311265;20;2492007;-50
2023/07/20 03:42:45;;;;;;;;;14.33;13.00;;;;;19.07;100.00;98953.75;6279236;20;3527466;-50
2023/07/20 03:45:13;;;;;;;;;13.00;12.00;;;;;18.96;100.00;98956.81;6282850;20;2806552;-49
2023/07/20 03:47:40;;;;;;;;;16.00;14.00;;;;;18.98;100.00;98965.63;6309164;20;2491967;-48
2023/07/20 03:50:09;;;;;;;;;14.50;14.50;;;;;19.11;100.00;98975.19;6276789;20;2488259;-51
2023/07/20 03:52:37;;;;;;;;;16.00;14.00;;;;;19.07;100.00;98970.09;6279742;20;3537973;-52
2023/07/20 03:55:05;;;;;;;;;16.00;15.00;;;;;19.28;100.00;98971.50;6281892;20;2491940;-53
2023/07/20 03:57:33;;;;;;;;;15.50;13.50;;;;;19.40;100.00;98969.28;6278798;20;2492067;-54
2023/07/20 04:00:01;;;;;;;;;15.50;12.50;;;;;19.66;100.00;98970.00;6275921;20;2804852;-53
2023/07/20 04:02:29;;;;;;;;;15.33;15.33;;;;;19.64;100.00;98971.16;6282742;20;3549332;-55
2023/07/20 04:04:58;;;;;;;;;16.00;14.67;;;;;19.65;100.00;98959.28;6308303;20;3550783;-52
2023/07/20 04:07:26;;;;;;;;;16.33;14.33;;;;;19.79;100.00;98957.75;6280615;20;2489937;-51
2023/07/20 04:09:54;;;;;;;;;14.50;13.00;;;;;19.82;100.00;98966.44;6309059;20;2800416;-50
2023/07/20 04:12:22;;;;;;;;;16.00;16.00;;;;;19.98;100.00;98962.84;6279777;20;2825294;-52
2023/07/20 04:14:50;;;;;;;;;12.33;12.00;;;;;20.00;100.00;98965.41;6278998;20;3522278;-52
2023/07/20 04:17:18;;;;;;;;;14.67;13.33;;;;;20.19;99.81;98970.47;6278480;20;3508602;-49
2023/07/20 04:19:46;;;;;;;;;18.33;16.33;;;;;20.20;99.59;98961.28;6310477;20;3578461;-53
2023/07/20 04:22:15;;;;;;;;;17.00;13.67;;;;;20.06;100.00;98975.59;6277442;20;2484243;-50
2023/07/20 04:24:43;;;;;;;;;13.00;12.00;;;;;19.91;100.00;98968.13;6308809;20;2792054;-55
2023/07/20 04:27:11;;;;;;;;;12.67;11.33;;;;;20.02;99.79;98975.09;6308384;20;2483749;-51
2023/07/20 04:29:39;;;;;;;;;19.00;17.50;;;;;20.08;100.00;98970.84;6308143;20;2835730;-55
2023/07/20 04:32:08;;;;;;;;;16.00;13.50;;;;;20.36;99.16;98972.13;6279594;20;2810785;-55
2023/07/20 04:34:37;;;;;;;;;15.00;10.67;;;;;20.16;99.78;98979.00;6279712;20;2483616;-55
2023/07/20 04:37:05;;;;;;;;;18.00;15.67;;;;;20.48;98.68;98979.94;6306087;20;2491967;-51
2023/07/20 04:39:33;;;;;;;;;12.00;12.00;;;;;20.50;97.97;98977.88;6308396;20;3509740;-51
2023/07/20 04:42:01;;;;;;;;;14.00;12.67;;;;;20.53;97.79;98974.81;6310325;20;2483660;-55
2023/07/20 04:44:29;;;;;;;;;12.67;12.67;;;;;20.50;98.18;98977.88;6309767;20;2496139;-55
2023/07/20 04:46:57;;;;;;;;;15.67;14.67;;;;;20.30;100.00;98978.31;6313613;20;2810706;-55
2023/07/20 04:49:25;;;;;;;;;16.00;15.67;;;;;20.67;100.00;98978.69;6309284;20;3548325;-54
2023/07/20 04:51:54;;;;;;;;;13.33;13.33;;;;;20.96;97.60;98978.94;6277359;20;3530576;-54
2023/07/20 04:54:22;;;;;;;;;16.33;15.00;;;;;21.21;96.31;98982.34;6311218;20;2483599;-51
2023/07/20 04:56:50;;;;;;;;;18.33;15.67;;;;;21.35;96.14;98977.16;6308793;20;3547176;-55
2023/07/20 04:59:18;;;;;;;;;13.33;13.33;;;;;21.39;95.21;98968.44;6276065;20;3536735;-54
2023/07/20 05:01:47;;;;;;;;;15.00;13.67;;;;;21.54;95.54;98973.09;6278923;20;3535806;-54
2023/07/20 05:04:15;;;;;;;;;16.33;13.33;;;;;21.74;94.91;98970.75;6310037;20;2487994;-52
2023/07/20 05:06:45;;;;;;;;;16.33;13.33;;;;;21.78;93.88;98972.09;6308082;20;3535674;-53
2023/07/20 05:09:13;;;;;;;;;13.33;13.33;;;;;21.96;93.45;98969.88;6278392;20;2483580;-53
2023/07/20 05:11:42;;;;;;;;;12.67;12.67;;;;;22.01;94.96;98972.03;6312522;20;3526409;-54
2023/07/20 05:14:10;;;;;;;;;14.33;13.67;;;;;22.03;93.86;98976.28;6284150;20;2483674;-51
2023/07/20 05:16:38;;;;;;;;;9.00;9.00;;;;;22.15;92.68;98973.94;6310509;20;3474250;-53
2023/07/20 05:19:06;;;;;;;;;17.50;16.00;;;;;22.30;92.88;98972.13;6314456;20;2824270;-50
2023/07/20 05:21:34;;;;;;;;;17.00;15.50;;;;;22.71;90.96;98973.53;6281843;20;2823176;-52
2023/07/20 05:24:02;;;;;;;;;17.33;15.33;;;;;22.80;90.48;98972.38;6284723;20;3552577;-54
2023/07/20 05:26:31;;;;;;;;;20.00;16.00;;;;;22.94;90.58;98965.19;6281918;20;2837838;-55
2023/07/20 05:28:59;;;;;;;;;16.00;14.50;;;;;22.80;90.90;98969.63;6282513;20;2821142;-55
2023/07/20 05:31:30;;;;;;;;;17.67;15.00;;;;;23.21;88.64;98963.63;6283350;20;2489864;-53
2023/07/20 05:33:58;;;;;;;;;13.33;13.33;;;;;23.17;88.18;98974.13;6315772;20;2483616;-54
2023/07/20 05:36:26;;;;;;;;;17.33;15.67;;;;;23.11;88.46;98961.19;6317879;20;3553412;-52
2023/07/20 05:38:54;;;;;;;;;12.50;12.50;;;;;23.47;87.69;98967.72;6284736;20;2491942;-51
2023/07/20 05:41:22;;;;;;;;;14.67;14.67;;;;;23.98;85.66;98971.16;6314160;20;3529560;-54
2023/07/20 05:43:50;;;;;;;;;12.33;11.00;;;;;24.19;83.32;98978.47;6312653;20;3518011;-49
2023/07/20 05:46:18;;;;;;;;;12.67;12.67;;;;;24.38;83.16;98978.81;6317720;20;2483586;-48
2023/07/20 05:48:47;;;;;;;;;15.67;14.33;;;;;24.52;80.62;98972.41;6318391;20;3539839;-51
2023/07/20 05:51:15;;;;;;;;;12.00;12.00;;;;;24.69;79.59;98973.75;6316109;20;3504456;-53
2023/07/20 05:53:43;;;;;;;;;11.67;11.00;;;;;24.77;80.52;98972.75;6314736;20;3504576;-52
2023/07/20 05:56:14;;;;;;;;;16.33;12.67;;;;;24.85;80.39;98972.56;6317492;20;2485775;-52
2023/07/20 05:58:42;;;;;;;;;13.00;11.00;;;;;24.98;78.75;98971.78;6314170;20;3503372;-55
2023/07/20 06:01:10;;;;;;;;;9.00;9.00;;;;;24.87;77.94;98964.16;6311151;20;3466987;-50
2023/07/20 06:03:38;;;;;;;;;10.33;9.67;;;;;25.03;76.26;98963.78;6323758;20;2773224;-52
2023/07/20 06:06:09;;;;;;;;;10.00;8.33;;;;;25.23;74.34;98979.53;6315403;20;3488841;-51
2023/07/20 06:08:37;;;;;;;;;9.67;8.67;;;;;25.29;73.65;98978.69;6317676;20;2756534;-51
2023/07/20 06:11:05;;;;;;;;;10.00;10.00;;;;;25.49;71.85;98978.72;6315597;20;3507576;-53
2023/07/20 06:13:33;;;;;;;;;6.67;6.67;;;;;25.43;71.49;98979.56;6313721;20;2752474;-54
2023/07/20 06:16:03;;;;;;;;;8.20;8.20;;;;;25.47;68.92;98976.22;6344903;20;2748311;-56
2023/07/20 06:18:31;;;;;;;;;9.67;8.33;;;;;25.72;68.62;98983.84;6288734;20;2759679;-52
2023/07/20 06:20:59;;;;;;;;;9.33;9.33;;;;;25.75;68.81;98994.44;6323760;20;2754444;-53
2023/07/20 06:23:27;;;;;;;;;8.00;6.33;;;;;25.79;67.75;98984.72;6312944;20;2738844;-53
2023/07/20 06:25:56;;;;;;;;;10.67;9.00;;;;;26.11;68.11;98993.22;6315623;20;2769147;-53
2023/07/20 06:28:24;;;;;;;;;11.00;8.00;;;;;26.09;67.56;98989.84;6320441;20;2765914;-50
2023/07/20 06:30:52;;;;;;;;;8.33;8.00;;;;;26.18;67.03;98985.81;6316831;20;2748289;-51
2023/07/20 06:33:20;;;;;;;;;8.33;8.33;;;;;26.39;66.06;98996.59;6316213;20;2745007;-51
2023/07/20 06:35:48;;;;;;;;;8.33;8.33;;;;;26.50;64.18;99001.44;6316296;20;2741961;-52
2023/07/20 06:38:16;;;;;;;;;10.00;8.67;;;;;26.63;63.47;98997.00;6309930;20;2770211;-53
2023/07/20 06:40:47;;;;;;;;;8.00;6.67;;;;;26.84;62.75;98995.91;6315012;20;2754482;-53
2023/07/20 06:43:16;;;;;;;;;5.00;5.00;;;;;26.89;63.13;99007.94;6312302;20;2736919;-54
2023/07/20 06:45:54;;;;;;;;;8.20;7.80;;;;;27.18;58.94;99015.94;6339103;20;2734621;-53
2023/07/20 06:48:22;;;;;;;;;11.33;7.00;;;;;27.41;58.86;99015.38;6282271;20;2765978;-47
2023/07/20 06:50:50;;;;;;;;;8.67;7.33;;;;;27.36;58.47;99021.59;6316871;20;2752451;-54
2023/07/20 06:53:18;;;;;;;;;7.00;7.00;;;;;27.34;56.28;99026.47;6316007;20;2747170;-51
2023/07/20 06:55:46;;;;;;;;;8.00;8.00;;;;;27.83;55.17;99026.84;6313842;20;2741047;-52
2023/07/20 06:58:34;;;;;;;;;6.67;6.67;;;;;27.77;55.25;99021.09;6309536;20;3461828;-52
2023/07/20 07:01:07;;;;;;;;;11.00;8.00;;;;;28.08;54.28;99030.50;6309313;20;3484767;-51
2023/07/20 07:03:36;;;;;;;;;8.33;7.00;;;;;28.79;51.64;99033.91;6310881;20;2744045;-49
2023/07/20 07:06:04;;;;;;;;;7.67;7.67;;;;;28.34;51.56;99036.88;6312464;20;2752467;-49
2023/07/20 07:08:33;;;;;;;;;6.67;6.67;;;;;28.28;52.20;99037.75;6310743;20;3458087;-53
2023/07/20 07:11:01;;;;;;;;;8.67;6.67;;;;;29.04;50.02;99037.50;6309909;20;2754537;-54
2023/07/20 07:13:30;;;;;;;;;9.67;8.33;;;;;28.89;51.00;99032.31;6318644;20;2767988;-53
2023/07/20 07:15:58;;;;;;;;;8.33;8.33;;;;;29.20;48.94;99035.16;6320193;20;2739868;-51
2023/07/20 07:18:26;;;;;;;;;8.33;8.33;;;;;29.25;49.39;99029.78;6317180;20;2752376;-51
2023/07/20 07:20:54;;;;;;;;;7.00;6.67;;;;;30.36;47.86;99031.19;6314882;20;2750329;-48
2023/07/20 07:23:22;;;;;;;;;10.00;9.00;;;;;30.04;46.19;99047.22;6308596;20;2771409;-54
2023/07/20 07:25:50;;;;;;;;;7.67;6.33;;;;;30.52;44.79;99045.41;6319871;20;2741943;-53
2023/07/20 07:28:18;;;;;;;;;8.67;7.33;;;;;30.25;43.23;99047.78;6311764;20;3459594;-50
2023/07/20 07:30:46;;;;;;;;;6.00;6.00;;;;;30.86;43.16;99051.22;6321822;20;2744044;-48
2023/07/20 07:33:14;;;;;;;;;6.33;6.33;;;;;30.38;42.24;99053.09;6312192;20;2750369;-53
2023/07/20 07:35:42;;;;;;;;;9.00;7.33;;;;;30.02;42.16;99048.53;6312251;20;2745708;-51
2023/07/20 07:38:10;;;;;;;;;11.33;6.67;;;;;30.12;42.34;99046.03;6308205;20;2773274;-50
2023/07/20 07:40:59;;;;;;;;;6.00;6.00;;;;;30.22;42.97;99049.06;6314268;20;2744098;-51
2023/07/20 07:43:27;;;;;;;;;6.33;6.33;;;;;30.75;42.23;99059.25;6317174;20;2739880;-54
2023/07/20 07:45:57;;;;;;;;;7.00;7.00;;;;;30.33;41.53;99053.84;6323667;20;2733779;-53
2023/07/20 07:48:25;;;;;;;;;7.00;7.00;;;;;30.93;40.44;99065.78;6312024;20;2747319;-54
2023/07/20 07:50:54;;;;;;;;;7.67;7.67;;;;;30.56;39.49;99066.84;6315617;20;2741997;-51
2023/07/20 07:53:22;;;;;;;;;7.00;6.67;;;;;30.77;39.24;99068.19;6311410;20;2736914;-55
2023/07/20 07:55:50;;;;;;;;;8.00;6.00;;;;;31.36;38.81;99076.47;6314956;20;2739827;-52
2023/07/20 07:58:18;;;;;;;;;9.00;6.67;;;;;30.42;38.77;99070.09;6317149;20;2755968;-47
2023/07/20 08:00:47;;;;;;;;;7.00;7.00;;;;;31.05;37.98;99069.41;6312647;20;2739896;-44
2023/07/20 08:03:15;;;;;;;;;4.67;4.33;;;;;31.16;36.48;99074.09;6314388;20;2733645;-43
2023/07/20 08:05:44;;;;;;;;;8.00;5.67;;;;;30.53;37.18;99077.56;6310625;20;2730530;-44
2023/07/20 08:08:12;;;;;;;;;6.00;4.67;;;;;30.34;37.18;99077.66;6309520;20;2742092;-44
2023/07/20 08:10:40;;;;;;;;;5.67;5.67;;;;;30.45;36.30;99075.16;6314858;20;2739932;-48
2023/07/20 08:13:08;;;;;;;;;7.33;4.67;;;;;29.73;36.87;99073.25;6310328;20;2748211;-48
2023/07/20 08:15:37;;;;;;;;;8.00;5.33;;;;;29.95;37.16;99074.41;6314776;20;2736842;-44
2023/07/20 08:18:07;;;;;;;;;7.00;4.33;;;;;29.97;37.46;99072.25;6311338;20;2744469;-44
2023/07/20 08:20:36;;;;;;;;;6.00;4.67;;;;;29.77;37.36;99079.16;6311947;20;2746236;-43
2023/07/20 08:23:04;;;;;;;;;3.33;3.33;;;;;29.64;36.62;99078.25;6305948;20;2743043;-45
2023/07/20 08:25:31;;;;;;;;;5.00;4.33;;;;;30.06;37.75;99088.53;6321285;20;2731578;-44
2023/07/20 08:28:00;;;;;;;;;2.00;2.00;;;;;30.07;37.36;99085.53;6311376;20;2750293;-44
2023/07/20 08:30:41;;;;;;;;;5.00;4.00;;;;;30.49;37.78;99087.44;6316110;20;2731641;-43
2023/07/20 08:33:19;;;;;;;;;6.00;4.00;;;;;30.01;37.77;99080.06;6322537;20;2731587;-46
2023/07/20 08:35:48;;;;;;;;;6.00;4.33;;;;;30.06;36.50;99077.44;6315066;20;2738855;-43
2023/07/20 08:38:16;;;;;;;;;4.67;4.67;;;;;30.35;37.35;99084.88;6310087;20;2739896;-44
2023/07/20 08:40:46;;;;;;;;;10.67;7.33;;;;;30.46;37.34;99083.22;6310233;20;2771154;-46
2023/07/20 08:43:18;;;;;;;;;5.67;5.67;;;;;30.15;37.87;99076.88;6310118;20;2743034;-43
2023/07/20 08:45:48;;;;;;;;;5.33;5.33;;;;;31.38;36.61;99087.34;6321492;20;2740938;-43
2023/07/20 08:48:18;;;;;;;;;5.00;5.00;;;;;30.21;37.77;99086.16;6321146;20;2735825;-48
2023/07/20 08:50:49;;;;;;;;;6.00;6.00;;;;;31.41;36.41;99089.63;6323947;20;2737901;-45
2023/07/20 08:53:17;;;;;;;;;5.67;4.67;;;;;30.97;37.51;99084.47;6324162;20;2739895;-45
2023/07/20 08:55:47;;;;;;;;;5.33;5.33;;;;;30.81;37.75;99091.59;6322186;20;2738909;-43
2023/07/20 08:58:15;;;;;;;;;7.67;6.00;;;;;31.17;36.47;99089.63;6325894;20;2748290;-46
2023/07/20 09:00:44;;;;;;;;;5.33;5.33;;;;;30.90;36.60;99082.91;6319749;20;2740940;-44
2023/07/20 09:03:15;;;;;;;;;5.33;5.00;;;;;31.07;37.14;99089.44;6324908;20;2734673;-47
2023/07/20 09:05:44;;;;;;;;;4.00;4.00;;;;;31.10;36.78;99091.72;6315585;20;3468024;-47
2023/07/20 09:08:12;;;;;;;;;6.00;6.00;;;;;31.16;36.54;99104.59;6320509;20;2735775;-47
2023/07/20 09:10:40;;;;;;;;;6.33;6.33;;;;;31.78;36.59;99095.69;6324246;20;2735719;-43
2023/07/20 09:13:08;;;;;;;;;6.33;6.00;;;;;32.47;35.74;99098.38;6329479;20;2746248;-46
2023/07/20 09:15:37;;;;;;;;;6.67;5.00;;;;;31.79;35.92;99102.06;6317911;20;2733616;-43
2023/07/20 09:18:05;;;;;;;;;7.00;5.00;;;;;31.72;36.62;99096.66;6321704;20;2732625;-45
2023/07/20 09:20:34;;;;;;;;;6.00;6.00;;;;;31.21;37.40;99106.66;6331414;20;2736892;-43
2023/07/20 09:23:06;;;;;;;;;6.67;5.67;;;;;31.83;36.24;99108.78;6324716;20;2733772;-45
2023/07/20 09:25:36;;;;;;;;;7.00;6.00;;;;;31.41;33.69;99100.72;6321298;20;2737838;-46
2023/07/20 09:28:04;;;;;;;;;6.33;5.00;;;;;30.97;34.88;99100.28;6322481;20;2750452;-45
2023/07/20 09:30:33;;;;;;;;;6.00;5.33;;;;;31.15;34.87;99114.00;6322525;20;2748242;-44
2023/07/20 09:33:01;;;;;;;;;5.67;4.67;;;;;31.12;35.04;99113.63;6317809;20;2739965;-47
2023/07/20 09:35:29;;;;;;;;;5.33;4.00;;;;;31.15;35.54;99102.91;6323363;20;2742081;-46
2023/07/20 09:38:10;;;;;;;;;4.60;3.60;;;;;31.55;33.97;99113.25;6342741;20;2744059;-42
2023/07/20 09:40:42;;;;;;;;;6.33;5.00;;;;;31.29;34.09;99109.03;6289687;20;2743024;-46
2023/07/20 09:43:16;;;;;;;;;7.67;4.33;;;;;31.52;34.85;99110.97;6321925;20;2734715;-47
2023/07/20 09:45:46;;;;;;;;;6.67;6.67;;;;;31.83;34.47;99108.78;6331923;20;2739930;-42
2023/07/20 09:48:21;;;;;;;;;4.00;4.00;;;;;31.68;34.19;99112.13;6321666;20;2748307;-44
2023/07/20 09:50:53;;;;;;;;;6.33;5.00;;;;;31.65;34.72;99110.69;6320429;20;2735816;-46
2023/07/20 09:53:26;;;;;;;;;3.33;3.33;;;;;31.25;34.64;99103.16;6322472;20;2745096;-45
2023/07/20 09:55:57;;;;;;;;;7.00;6.00;;;;;31.36;34.22;99098.66;6364622;20;3449226;-45
2023/07/20 09:58:32;;;;;;;;;3.33;3.33;;;;;30.86;33.83;99101.97;6316215;20;2745549;-46
2023/07/20 10:01:07;;;;;;;;;7.33;4.33;;;;;31.28;33.80;99097.09;6318356;20;2740000;-45
2023/07/20 10:03:38;;;;;;;;;7.67;3.33;;;;;30.88;33.52;99096.16;6313486;20;2749276;-44
2023/07/20 10:06:11;;;;;;;;;10.00;6.00;;;;;31.09;33.06;99098.31;6320094;20;2757668;-45
2023/07/20 10:08:41;;;;;;;;;4.00;3.00;;;;;30.92;33.47;99092.69;6314236;20;2747164;-44
2023/07/20 10:11:16;;;;;;;;;4.00;4.00;;;;;31.49;32.82;99092.00;6337512;20;2745128;-45
2023/07/20 10:13:45;;;;;;;;;11.00;5.33;;;;;30.60;33.97;99092.16;6288656;20;2752512;-43
2023/07/20 10:16:26;;;;;;;;;3.00;3.00;;;;;31.18;33.34;99104.38;6315941;20;2741055;-45
2023/07/20 10:19:07;;;;;;;;;4.00;4.00;;;;;31.39;33.75;99100.13;6315589;20;2743032;-47
2023/07/20 10:21:55;;;;;;;;;4.00;4.00;;;;;31.03;34.56;99093.75;6333342;20;1809894;-45
2023/07/20 10:24:28;;;;;;;;;9.67;6.33;;;;;30.71;33.88;99102.41;6316434;20;2745076;-44
2023/07/20 10:26:56;;;;;;;;;3.33;3.33;;;;;30.28;34.12;99102.69;6314492;20;2733664;-44
2023/07/20 10:29:27;;;;;;;;;4.00;4.00;;;;;30.02;35.76;99101.13;6316606;20;2738925;-45
2023/07/20 10:31:58;;;;;;;;;4.20;4.00;;;;;30.28;34.48;99106.31;6339476;20;2756512;-46
2023/07/20 10:34:28;;;;;;;;;7.00;3.40;;;;;31.03;33.53;99107.63;6308778;20;2748230;-45
2023/07/20 10:36:56;;;;;;;;;3.67;3.67;;;;;31.17;32.85;99111.81;6286463;20;2743128;-48
2023/07/20 10:39:31;;;;;;;;;5.67;4.67;;;;;32.29;31.89;99121.66;6318760;20;2739898;-50
2023/07/20 10:42:10;;;;;;;;;5.00;5.00;;;;;31.95;31.78;99117.97;6317471;20;2743002;-47
2023/07/20 10:44:39;;;;;;;;;3.33;3.00;;;;;31.41;33.21;99115.47;6316517;20;2740911;-47
2023/07/20 10:47:12;;;;;;;;;3.67;3.67;;;;;31.39;33.58;99125.13;6317196;20;2746133;-45
2023/07/20 10:50:02;;;;;;;;;6.00;4.00;;;;;31.12;34.19;99119.19;6320678;20;2635718;-48
2023/07/20 10:52:42;;;;;;;;;4.33;3.33;;;;;31.22;32.97;99105.53;6318045;20;2774263;-47
2023/07/20 10:55:14;;;;;;;;;4.67;4.67;;;;;31.62;33.73;99118.63;6317647;20;2732691;-44
2023/07/20 10:57:42;;;;;;;;;4.00;4.00;;;;;31.08;34.41;99118.00;6314628;20;2741967;-48
2023/07/20 11:00:14;;;;;;;;;5.00;3.67;;;;;31.43;34.32;99112.41;6317754;20;2734828;-47
2023/07/20 11:02:47;;;;;;;;;7.00;5.67;;;;;32.28;33.41;99110.78;6317459;20;2729869;-47
2023/07/20 11:05:39;;;;;;;;;5.00;5.00;;;;;31.50;34.07;99099.25;6317039;20;2744464;-48
2023/07/20 11:08:12;;;;;;;;;7.33;6.00;;;;;31.79;33.56;99105.69;6312801;20;2740047;-45
2023/07/20 11:10:40;;;;;;;;;5.33;3.67;;;;;30.58;35.45;99099.88;6313078;20;2752338;-48
2023/07/20 11:13:25;;;;;;;;;6.00;4.33;;;;;30.86;34.92;99107.53;6316360;20;2740953;-44
2023/07/20 11:15:59;;;;;;;;;4.33;4.33;;;;;30.83;35.11;99103.31;6317046;20;2736902;-45
2023/07/20 11:18:27;;;;;;;;;5.67;5.67;;;;;31.01;35.67;99107.00;6318249;20;2732628;-47